sensor_id;sensor_type;location;lat;lon;timestamp;P1;durP1;ratioP1;P2;durP2;ratioP2
5191;SDS011;2615;44.524;11.284;2023-03-20T00:02:01;63.83;;;47.83;;
5191;SDS011;2615;44.524;11.284;2023-03-20T00:04:32;65.93;;;50.13;;
5191;SDS011;2615;44.524;11.284;2023-03-20T00:07:00;62.67;;;46.70;;
5191;SDS011;2615;44.524;11.284;2023-03-20T00:09:29;54.80;;;42.23;;
5191;SDS011;2615;44.524;11.284;2023-03-20T00:11:58;59.90;;;42.97;;
5191;SDS011;2615;44.524;11.284;2023-03-20T00:14:26;54.90;;;43.43;;
5191;SDS011;2615;44.524;11.284;2023-03-20T00:16:54;60.43;;;45.50;;
5191;SDS011;2615;44.524;11.284;2023-03-20T00:19:23;59.30;;;45.00;;
5191;SDS011;2615;44.524;11.284;2023-03-20T00:21:54;58.00;;;42.90;;
5191;SDS011;2615;44.524;11.284;2023-03-20T00:24:23;58.03;;;42.73;;
5191;SDS011;2615;44.524;11.284;2023-03-20T00:26:51;56.73;;;40.20;;
5191;SDS011;2615;44.524;11.284;2023-03-20T00:29:20;48.23;;;37.10;;
5191;SDS011;2615;44.524;11.284;2023-03-20T00:31:51;43.87;;;35.30;;
5191;SDS011;2615;44.524;11.284;2023-03-20T00:34:20;41.00;;;35.13;;
5191;SDS011;2615;44.524;11.284;2023-03-20T00:36:51;45.33;;;34.47;;
5191;SDS011;2615;44.524;11.284;2023-03-20T00:39:21;44.07;;;34.93;;
5191;SDS011;2615;44.524;11.284;2023-03-20T00:41:50;46.10;;;34.93;;
5191;SDS011;2615;44.524;11.284;2023-03-20T00:44:21;43.07;;;34.50;;
5191;SDS011;2615;44.524;11.284;2023-03-20T00:46:52;39.17;;;31.60;;
5191;SDS011;2615;44.524;11.284;2023-03-20T00:49:24;37.60;;;29.73;;
5191;SDS011;2615;44.524;11.284;2023-03-20T00:51:54;37.87;;;30.17;;
5191;SDS011;2615;44.524;11.284;2023-03-20T00:54:24;37.37;;;28.10;;
5191;SDS011;2615;44.524;11.284;2023-03-20T00:56:54;34.60;;;29.17;;
5191;SDS011;2615;44.524;11.284;2023-03-20T00:59:26;33.60;;;29.00;;
5191;SDS011;2615;44.524;11.284;2023-03-20T01:01:56;34.73;;;27.43;;
5191;SDS011;2615;44.524;11.284;2023-03-20T01:04:25;39.33;;;27.63;;
5191;SDS011;2615;44.524;11.284;2023-03-20T01:06:59;31.63;;;25.20;;
5191;SDS011;2615;44.524;11.284;2023-03-20T01:09:29;34.70;;;26.10;;
5191;SDS011;2615;44.524;11.284;2023-03-20T01:11:57;31.03;;;24.33;;
5191;SDS011;2615;44.524;11.284;2023-03-20T01:14:26;32.43;;;24.90;;
5191;SDS011;2615;44.524;11.284;2023-03-20T01:16:54;31.83;;;24.03;;
5191;SDS011;2615;44.524;11.284;2023-03-20T01:19:22;30.87;;;24.00;;
5191;SDS011;2615;44.524;11.284;2023-03-20T01:21:50;30.23;;;24.83;;
5191;SDS011;2615;44.524;11.284;2023-03-20T01:24:18;25.93;;;22.13;;
5191;SDS011;2615;44.524;11.284;2023-03-20T01:26:48;31.33;;;24.63;;
5191;SDS011;2615;44.524;11.284;2023-03-20T01:29:18;33.50;;;24.53;;
5191;SDS011;2615;44.524;11.284;2023-03-20T01:31:48;29.67;;;22.27;;
5191;SDS011;2615;44.524;11.284;2023-03-20T01:34:17;27.63;;;21.97;;
5191;SDS011;2615;44.524;11.284;2023-03-20T01:36:47;25.97;;;21.20;;
5191;SDS011;2615;44.524;11.284;2023-03-20T01:39:17;28.30;;;22.30;;
5191;SDS011;2615;44.524;11.284;2023-03-20T01:41:51;26.43;;;21.97;;
5191;SDS011;2615;44.524;11.284;2023-03-20T01:44:20;32.53;;;23.03;;
5191;SDS011;2615;44.524;11.284;2023-03-20T01:46:50;27.70;;;21.43;;
5191;SDS011;2615;44.524;11.284;2023-03-20T01:52:25;28.37;;;22.70;;
5191;SDS011;2615;44.524;11.284;2023-03-20T01:54:53;29.00;;;22.93;;
5191;SDS011;2615;44.524;11.284;2023-03-20T01:57:23;26.23;;;21.83;;
5191;SDS011;2615;44.524;11.284;2023-03-20T01:59:52;31.80;;;24.80;;
5191;SDS011;2615;44.524;11.284;2023-03-20T02:02:25;29.50;;;23.40;;
5191;SDS011;2615;44.524;11.284;2023-03-20T02:04:58;30.33;;;23.40;;
5191;SDS011;2615;44.524;11.284;2023-03-20T02:07:30;28.70;;;22.23;;
5191;SDS011;2615;44.524;11.284;2023-03-20T02:10:00;32.20;;;24.67;;
5191;SDS011;2615;44.524;11.284;2023-03-20T02:12:31;29.43;;;22.63;;
5191;SDS011;2615;44.524;11.284;2023-03-20T02:15:01;27.53;;;21.80;;
5191;SDS011;2615;44.524;11.284;2023-03-20T02:17:30;26.90;;;21.63;;
5191;SDS011;2615;44.524;11.284;2023-03-20T02:20:00;31.10;;;22.87;;
5191;SDS011;2615;44.524;11.284;2023-03-20T02:22:43;29.60;;;21.97;;
5191;SDS011;2615;44.524;11.284;2023-03-20T02:31:44;26.53;;;19.83;;
5191;SDS011;2615;44.524;11.284;2023-03-20T02:34:38;27.93;;;22.70;;
5191;SDS011;2615;44.524;11.284;2023-03-20T02:37:39;29.20;;;22.20;;
5191;SDS011;2615;44.524;11.284;2023-03-20T02:40:20;29.80;;;22.30;;
5191;SDS011;2615;44.524;11.284;2023-03-20T02:42:55;25.80;;;21.53;;
5191;SDS011;2615;44.524;11.284;2023-03-20T02:45:30;34.43;;;21.70;;
5191;SDS011;2615;44.524;11.284;2023-03-20T02:48:06;24.80;;;19.13;;
5191;SDS011;2615;44.524;11.284;2023-03-20T02:50:41;28.10;;;19.30;;
5191;SDS011;2615;44.524;11.284;2023-03-20T02:53:23;26.93;;;20.60;;
5191;SDS011;2615;44.524;11.284;2023-03-20T02:56:02;26.17;;;20.10;;
5191;SDS011;2615;44.524;11.284;2023-03-20T02:58:37;24.93;;;20.10;;
5191;SDS011;2615;44.524;11.284;2023-03-20T03:01:12;26.73;;;21.27;;
5191;SDS011;2615;44.524;11.284;2023-03-20T03:03:44;26.37;;;20.50;;
5191;SDS011;2615;44.524;11.284;2023-03-20T03:06:17;25.07;;;18.67;;
5191;SDS011;2615;44.524;11.284;2023-03-20T03:08:52;24.73;;;19.50;;
5191;SDS011;2615;44.524;11.284;2023-03-20T03:11:25;20.40;;;17.70;;
5191;SDS011;2615;44.524;11.284;2023-03-20T03:13:54;24.07;;;21.10;;
5191;SDS011;2615;44.524;11.284;2023-03-20T03:16:24;21.87;;;17.90;;
5191;SDS011;2615;44.524;11.284;2023-03-20T03:18:59;27.50;;;19.60;;
5191;SDS011;2615;44.524;11.284;2023-03-20T03:21:31;28.53;;;19.90;;
5191;SDS011;2615;44.524;11.284;2023-03-20T03:24:03;25.30;;;20.37;;
5191;SDS011;2615;44.524;11.284;2023-03-20T03:26:33;24.70;;;18.53;;
5191;SDS011;2615;44.524;11.284;2023-03-20T03:29:06;27.47;;;21.10;;
5191;SDS011;2615;44.524;11.284;2023-03-20T03:31:38;28.37;;;20.40;;
5191;SDS011;2615;44.524;11.284;2023-03-20T03:34:07;25.00;;;19.53;;
5191;SDS011;2615;44.524;11.284;2023-03-20T03:36:41;26.73;;;20.27;;
5191;SDS011;2615;44.524;11.284;2023-03-20T03:39:20;32.00;;;21.30;;
5191;SDS011;2615;44.524;11.284;2023-03-20T03:41:56;29.00;;;22.33;;
5191;SDS011;2615;44.524;11.284;2023-03-20T03:44:30;31.67;;;22.93;;
5191;SDS011;2615;44.524;11.284;2023-03-20T03:47:05;29.10;;;23.30;;
5191;SDS011;2615;44.524;11.284;2023-03-20T03:49:38;29.10;;;22.30;;
5191;SDS011;2615;44.524;11.284;2023-03-20T03:52:09;34.50;;;24.00;;
5191;SDS011;2615;44.524;11.284;2023-03-20T03:54:44;35.63;;;26.23;;
5191;SDS011;2615;44.524;11.284;2023-03-20T03:57:15;31.30;;;22.90;;
5191;SDS011;2615;44.524;11.284;2023-03-20T03:59:49;28.47;;;23.10;;
5191;SDS011;2615;44.524;11.284;2023-03-20T04:02:19;31.40;;;24.67;;
5191;SDS011;2615;44.524;11.284;2023-03-20T04:04:49;29.90;;;21.60;;
5191;SDS011;2615;44.524;11.284;2023-03-20T04:07:20;30.50;;;22.60;;
5191;SDS011;2615;44.524;11.284;2023-03-20T04:09:49;33.07;;;25.93;;
5191;SDS011;2615;44.524;11.284;2023-03-20T04:12:27;31.80;;;22.80;;
5191;SDS011;2615;44.524;11.284;2023-03-20T04:15:00;31.50;;;22.57;;
5191;SDS011;2615;44.524;11.284;2023-03-20T04:17:29;33.63;;;23.97;;
5191;SDS011;2615;44.524;11.284;2023-03-20T04:19:57;32.07;;;22.17;;
5191;SDS011;2615;44.524;11.284;2023-03-20T04:22:25;34.43;;;24.50;;
5191;SDS011;2615;44.524;11.284;2023-03-20T04:24:55;34.40;;;23.87;;
5191;SDS011;2615;44.524;11.284;2023-03-20T04:27:23;28.00;;;21.87;;
5191;SDS011;2615;44.524;11.284;2023-03-20T04:29:51;36.10;;;24.17;;
5191;SDS011;2615;44.524;11.284;2023-03-20T04:32:19;35.50;;;23.20;;
5191;SDS011;2615;44.524;11.284;2023-03-20T04:34:47;36.53;;;25.17;;
5191;SDS011;2615;44.524;11.284;2023-03-20T04:37:17;33.60;;;23.43;;
5191;SDS011;2615;44.524;11.284;2023-03-20T04:39:45;39.30;;;26.57;;
5191;SDS011;2615;44.524;11.284;2023-03-20T04:42:15;36.33;;;25.27;;
5191;SDS011;2615;44.524;11.284;2023-03-20T04:44:43;32.93;;;23.67;;
5191;SDS011;2615;44.524;11.284;2023-03-20T04:47:11;35.50;;;25.90;;
5191;SDS011;2615;44.524;11.284;2023-03-20T04:49:39;41.60;;;26.57;;
5191;SDS011;2615;44.524;11.284;2023-03-20T04:52:07;39.07;;;26.90;;
5191;SDS011;2615;44.524;11.284;2023-03-20T04:54:35;44.53;;;26.97;;
5191;SDS011;2615;44.524;11.284;2023-03-20T04:57:04;36.43;;;25.07;;
5191;SDS011;2615;44.524;11.284;2023-03-20T04:59:33;37.43;;;24.37;;
5191;SDS011;2615;44.524;11.284;2023-03-20T05:02:01;39.93;;;26.60;;
5191;SDS011;2615;44.524;11.284;2023-03-20T05:04:29;37.43;;;25.43;;
5191;SDS011;2615;44.524;11.284;2023-03-20T05:06:57;36.60;;;26.07;;
5191;SDS011;2615;44.524;11.284;2023-03-20T05:09:26;40.77;;;24.47;;
5191;SDS011;2615;44.524;11.284;2023-03-20T05:11:54;40.27;;;26.37;;
5191;SDS011;2615;44.524;11.284;2023-03-20T05:14:22;40.53;;;26.57;;
5191;SDS011;2615;44.524;11.284;2023-03-20T05:16:51;48.40;;;29.00;;
5191;SDS011;2615;44.524;11.284;2023-03-20T05:19:19;38.00;;;25.30;;
5191;SDS011;2615;44.524;11.284;2023-03-20T05:21:48;50.60;;;30.97;;
5191;SDS011;2615;44.524;11.284;2023-03-20T05:24:16;46.50;;;28.17;;
5191;SDS011;2615;44.524;11.284;2023-03-20T05:26:44;40.17;;;26.53;;
5191;SDS011;2615;44.524;11.284;2023-03-20T05:29:12;43.63;;;28.33;;
5191;SDS011;2615;44.524;11.284;2023-03-20T05:31:40;47.77;;;29.40;;
5191;SDS011;2615;44.524;11.284;2023-03-20T05:34:10;54.43;;;33.90;;
5191;SDS011;2615;44.524;11.284;2023-03-20T05:36:38;54.70;;;36.47;;
5191;SDS011;2615;44.524;11.284;2023-03-20T05:39:06;63.33;;;36.13;;
5191;SDS011;2615;44.524;11.284;2023-03-20T05:41:34;53.20;;;35.60;;
5191;SDS011;2615;44.524;11.284;2023-03-20T05:44:02;56.13;;;36.60;;
5191;SDS011;2615;44.524;11.284;2023-03-20T05:46:30;62.13;;;37.13;;
5191;SDS011;2615;44.524;11.284;2023-03-20T05:48:59;61.17;;;37.77;;
5191;SDS011;2615;44.524;11.284;2023-03-20T05:51:28;60.57;;;38.67;;
5191;SDS011;2615;44.524;11.284;2023-03-20T05:53:56;57.97;;;36.83;;
5191;SDS011;2615;44.524;11.284;2023-03-20T05:56:24;64.53;;;40.00;;
5191;SDS011;2615;44.524;11.284;2023-03-20T05:58:53;74.37;;;40.43;;
5191;SDS011;2615;44.524;11.284;2023-03-20T06:01:21;54.40;;;35.23;;
5191;SDS011;2615;44.524;11.284;2023-03-20T06:03:49;52.70;;;35.10;;
5191;SDS011;2615;44.524;11.284;2023-03-20T06:06:17;50.73;;;34.63;;
5191;SDS011;2615;44.524;11.284;2023-03-20T06:08:47;52.63;;;34.43;;
5191;SDS011;2615;44.524;11.284;2023-03-20T06:11:16;51.60;;;35.20;;
5191;SDS011;2615;44.524;11.284;2023-03-20T06:13:44;61.13;;;39.83;;
5191;SDS011;2615;44.524;11.284;2023-03-20T06:16:12;62.97;;;39.47;;
5191;SDS011;2615;44.524;11.284;2023-03-20T06:18:40;69.73;;;42.20;;
5191;SDS011;2615;44.524;11.284;2023-03-20T06:21:08;71.73;;;40.47;;
5191;SDS011;2615;44.524;11.284;2023-03-20T06:23:38;65.43;;;39.67;;
5191;SDS011;2615;44.524;11.284;2023-03-20T06:26:07;57.60;;;38.40;;
5191;SDS011;2615;44.524;11.284;2023-03-20T06:28:37;69.20;;;40.40;;
5191;SDS011;2615;44.524;11.284;2023-03-20T06:31:05;60.13;;;39.97;;
5191;SDS011;2615;44.524;11.284;2023-03-20T06:33:35;61.93;;;39.23;;
5191;SDS011;2615;44.524;11.284;2023-03-20T06:36:03;66.07;;;38.33;;
5191;SDS011;2615;44.524;11.284;2023-03-20T06:38:32;62.80;;;38.63;;
5191;SDS011;2615;44.524;11.284;2023-03-20T06:41:00;69.70;;;41.93;;
5191;SDS011;2615;44.524;11.284;2023-03-20T06:43:29;72.40;;;42.43;;
5191;SDS011;2615;44.524;11.284;2023-03-20T06:45:57;72.20;;;42.90;;
5191;SDS011;2615;44.524;11.284;2023-03-20T06:48:25;70.27;;;44.47;;
5191;SDS011;2615;44.524;11.284;2023-03-20T06:50:53;67.43;;;40.97;;
5191;SDS011;2615;44.524;11.284;2023-03-20T06:53:21;70.83;;;40.90;;
5191;SDS011;2615;44.524;11.284;2023-03-20T06:55:50;65.90;;;39.20;;
5191;SDS011;2615;44.524;11.284;2023-03-20T06:58:18;67.13;;;40.23;;
5191;SDS011;2615;44.524;11.284;2023-03-20T07:00:47;67.90;;;42.23;;
5191;SDS011;2615;44.524;11.284;2023-03-20T07:03:15;66.90;;;41.47;;
5191;SDS011;2615;44.524;11.284;2023-03-20T07:05:43;60.50;;;38.30;;
5191;SDS011;2615;44.524;11.284;2023-03-20T07:08:12;63.87;;;37.87;;
5191;SDS011;2615;44.524;11.284;2023-03-20T07:10:40;62.93;;;38.30;;
5191;SDS011;2615;44.524;11.284;2023-03-20T07:13:08;60.73;;;36.20;;
5191;SDS011;2615;44.524;11.284;2023-03-20T07:15:37;56.50;;;37.23;;
5191;SDS011;2615;44.524;11.284;2023-03-20T07:18:24;68.53;;;41.87;;
5191;SDS011;2615;44.524;11.284;2023-03-20T07:20:52;72.43;;;39.77;;
5191;SDS011;2615;44.524;11.284;2023-03-20T07:23:24;75.40;;;44.63;;
5191;SDS011;2615;44.524;11.284;2023-03-20T07:25:52;70.03;;;43.20;;
5191;SDS011;2615;44.524;11.284;2023-03-20T07:28:20;76.83;;;43.93;;
5191;SDS011;2615;44.524;11.284;2023-03-20T07:30:48;76.57;;;45.83;;
5191;SDS011;2615;44.524;11.284;2023-03-20T07:33:17;72.73;;;41.20;;
5191;SDS011;2615;44.524;11.284;2023-03-20T07:35:50;69.80;;;43.30;;
5191;SDS011;2615;44.524;11.284;2023-03-20T07:38:19;69.87;;;39.50;;
5191;SDS011;2615;44.524;11.284;2023-03-20T07:40:47;78.03;;;43.13;;
5191;SDS011;2615;44.524;11.284;2023-03-20T07:43:15;70.73;;;40.70;;
5191;SDS011;2615;44.524;11.284;2023-03-20T07:45:43;71.50;;;41.47;;
5191;SDS011;2615;44.524;11.284;2023-03-20T07:48:12;61.90;;;40.20;;
5191;SDS011;2615;44.524;11.284;2023-03-20T07:50:40;48.10;;;31.97;;
5191;SDS011;2615;44.524;11.284;2023-03-20T07:53:09;45.53;;;30.67;;
5191;SDS011;2615;44.524;11.284;2023-03-20T07:55:37;48.13;;;32.17;;
5191;SDS011;2615;44.524;11.284;2023-03-20T07:58:05;49.27;;;32.80;;
5191;SDS011;2615;44.524;11.284;2023-03-20T08:00:34;52.67;;;31.40;;
5191;SDS011;2615;44.524;11.284;2023-03-20T08:03:02;50.23;;;35.43;;
5191;SDS011;2615;44.524;11.284;2023-03-20T08:05:31;46.77;;;32.80;;
5191;SDS011;2615;44.524;11.284;2023-03-20T08:08:00;51.00;;;33.23;;
5191;SDS011;2615;44.524;11.284;2023-03-20T08:10:29;40.90;;;28.53;;
5191;SDS011;2615;44.524;11.284;2023-03-20T08:12:57;39.03;;;30.30;;
5191;SDS011;2615;44.524;11.284;2023-03-20T08:15:26;49.00;;;31.70;;
5191;SDS011;2615;44.524;11.284;2023-03-20T08:17:54;50.03;;;33.67;;
5191;SDS011;2615;44.524;11.284;2023-03-20T08:20:23;65.43;;;36.83;;
5191;SDS011;2615;44.524;11.284;2023-03-20T08:22:52;44.77;;;31.70;;
5191;SDS011;2615;44.524;11.284;2023-03-20T08:25:20;45.17;;;34.10;;
5191;SDS011;2615;44.524;11.284;2023-03-20T08:27:50;47.87;;;31.20;;
5191;SDS011;2615;44.524;11.284;2023-03-20T08:30:18;53.67;;;33.17;;
5191;SDS011;2615;44.524;11.284;2023-03-20T08:32:46;44.83;;;30.33;;
5191;SDS011;2615;44.524;11.284;2023-03-20T08:35:14;44.43;;;30.80;;
5191;SDS011;2615;44.524;11.284;2023-03-20T08:37:58;35.87;;;26.07;;
5191;SDS011;2615;44.524;11.284;2023-03-20T08:40:26;32.57;;;24.03;;
5191;SDS011;2615;44.524;11.284;2023-03-20T08:42:56;34.43;;;25.50;;
5191;SDS011;2615;44.524;11.284;2023-03-20T08:45:25;38.60;;;27.33;;
5191;SDS011;2615;44.524;11.284;2023-03-20T08:47:53;42.30;;;28.40;;
5191;SDS011;2615;44.524;11.284;2023-03-20T08:50:22;38.40;;;27.30;;
5191;SDS011;2615;44.524;11.284;2023-03-20T08:52:50;42.07;;;28.60;;
5191;SDS011;2615;44.524;11.284;2023-03-20T08:55:18;39.97;;;28.40;;
5191;SDS011;2615;44.524;11.284;2023-03-20T08:57:46;43.37;;;29.40;;
5191;SDS011;2615;44.524;11.284;2023-03-20T09:00:16;45.40;;;30.43;;
5191;SDS011;2615;44.524;11.284;2023-03-20T09:02:45;55.13;;;30.40;;
5191;SDS011;2615;44.524;11.284;2023-03-20T09:05:14;43.87;;;29.73;;
5191;SDS011;2615;44.524;11.284;2023-03-20T09:07:42;40.50;;;29.00;;
5191;SDS011;2615;44.524;11.284;2023-03-20T09:10:11;45.93;;;30.83;;
5191;SDS011;2615;44.524;11.284;2023-03-20T09:12:39;44.70;;;30.27;;
5191;SDS011;2615;44.524;11.284;2023-03-20T09:15:07;41.90;;;30.90;;
5191;SDS011;2615;44.524;11.284;2023-03-20T09:17:38;40.40;;;28.47;;
5191;SDS011;2615;44.524;11.284;2023-03-20T09:20:07;35.43;;;25.30;;
5191;SDS011;2615;44.524;11.284;2023-03-20T09:22:36;33.90;;;25.60;;
5191;SDS011;2615;44.524;11.284;2023-03-20T09:25:06;34.90;;;24.33;;
5191;SDS011;2615;44.524;11.284;2023-03-20T09:27:35;36.53;;;25.83;;
5191;SDS011;2615;44.524;11.284;2023-03-20T09:30:03;34.60;;;25.83;;
5191;SDS011;2615;44.524;11.284;2023-03-20T09:32:33;38.80;;;25.60;;
5191;SDS011;2615;44.524;11.284;2023-03-20T09:35:03;34.33;;;24.60;;
5191;SDS011;2615;44.524;11.284;2023-03-20T09:37:31;39.97;;;25.13;;
5191;SDS011;2615;44.524;11.284;2023-03-20T09:40:00;39.83;;;25.57;;
5191;SDS011;2615;44.524;11.284;2023-03-20T09:42:31;42.90;;;28.33;;
5191;SDS011;2615;44.524;11.284;2023-03-20T09:45:10;39.77;;;27.33;;
5191;SDS011;2615;44.524;11.284;2023-03-20T09:47:46;48.77;;;30.07;;
5191;SDS011;2615;44.524;11.284;2023-03-20T09:50:24;47.93;;;29.77;;
5191;SDS011;2615;44.524;11.284;2023-03-20T09:52:57;43.87;;;30.00;;
5191;SDS011;2615;44.524;11.284;2023-03-20T09:55:33;43.27;;;28.70;;
5191;SDS011;2615;44.524;11.284;2023-03-20T09:58:05;38.97;;;29.00;;
5191;SDS011;2615;44.524;11.284;2023-03-20T10:00:39;44.13;;;28.60;;
5191;SDS011;2615;44.524;11.284;2023-03-20T10:03:14;56.27;;;30.70;;
5191;SDS011;2615;44.524;11.284;2023-03-20T10:05:48;38.80;;;27.00;;
5191;SDS011;2615;44.524;11.284;2023-03-20T10:08:24;38.03;;;24.87;;
5191;SDS011;2615;44.524;11.284;2023-03-20T10:10:57;41.30;;;24.20;;
5191;SDS011;2615;44.524;11.284;2023-03-20T10:13:42;36.10;;;23.10;;
5191;SDS011;2615;44.524;11.284;2023-03-20T10:16:23;32.33;;;21.03;;
5191;SDS011;2615;44.524;11.284;2023-03-20T10:19:05;38.13;;;22.77;;
5191;SDS011;2615;44.524;11.284;2023-03-20T10:21:41;30.37;;;19.73;;
5191;SDS011;2615;44.524;11.284;2023-03-20T10:24:12;23.87;;;17.00;;
5191;SDS011;2615;44.524;11.284;2023-03-20T10:26:47;28.53;;;16.93;;
5191;SDS011;2615;44.524;11.284;2023-03-20T10:29:21;24.17;;;15.90;;
5191;SDS011;2615;44.524;11.284;2023-03-20T10:31:58;26.67;;;17.23;;
5191;SDS011;2615;44.524;11.284;2023-03-20T10:34:38;26.80;;;16.77;;
5191;SDS011;2615;44.524;11.284;2023-03-20T10:37:20;25.33;;;16.90;;
5191;SDS011;2615;44.524;11.284;2023-03-20T10:40:01;25.70;;;15.70;;
5191;SDS011;2615;44.524;11.284;2023-03-20T10:42:39;29.77;;;17.37;;
5191;SDS011;2615;44.524;11.284;2023-03-20T10:45:14;23.07;;;16.80;;
5191;SDS011;2615;44.524;11.284;2023-03-20T10:47:54;27.90;;;17.20;;
5191;SDS011;2615;44.524;11.284;2023-03-20T10:50:26;27.00;;;17.17;;
5191;SDS011;2615;44.524;11.284;2023-03-20T10:52:58;25.60;;;16.50;;
5191;SDS011;2615;44.524;11.284;2023-03-20T10:55:29;26.23;;;18.53;;
5191;SDS011;2615;44.524;11.284;2023-03-20T10:58:01;28.77;;;17.40;;
5191;SDS011;2615;44.524;11.284;2023-03-20T11:00:36;28.63;;;19.30;;
5191;SDS011;2615;44.524;11.284;2023-03-20T11:03:05;29.43;;;19.97;;
5191;SDS011;2615;44.524;11.284;2023-03-20T11:05:39;33.67;;;22.73;;
5191;SDS011;2615;44.524;11.284;2023-03-20T11:08:10;35.17;;;23.60;;
5191;SDS011;2615;44.524;11.284;2023-03-20T11:10:41;27.10;;;20.40;;
5191;SDS011;2615;44.524;11.284;2023-03-20T11:13:14;28.70;;;21.20;;
5191;SDS011;2615;44.524;11.284;2023-03-20T11:15:44;29.10;;;22.17;;
5191;SDS011;2615;44.524;11.284;2023-03-20T11:18:13;30.70;;;22.23;;
5191;SDS011;2615;44.524;11.284;2023-03-20T11:20:43;32.63;;;23.20;;
5191;SDS011;2615;44.524;11.284;2023-03-20T11:23:15;30.73;;;20.83;;
5191;SDS011;2615;44.524;11.284;2023-03-20T11:25:47;28.80;;;20.60;;
5191;SDS011;2615;44.524;11.284;2023-03-20T11:28:19;29.77;;;19.53;;
5191;SDS011;2615;44.524;11.284;2023-03-20T11:30:55;30.27;;;20.57;;
5191;SDS011;2615;44.524;11.284;2023-03-20T11:33:32;26.67;;;20.30;;
5191;SDS011;2615;44.524;11.284;2023-03-20T11:36:09;25.73;;;17.27;;
5191;SDS011;2615;44.524;11.284;2023-03-20T11:38:44;28.77;;;19.30;;
5191;SDS011;2615;44.524;11.284;2023-03-20T11:41:21;32.43;;;19.93;;
5191;SDS011;2615;44.524;11.284;2023-03-20T11:43:51;24.10;;;18.90;;
5191;SDS011;2615;44.524;11.284;2023-03-20T11:46:20;27.70;;;20.80;;
5191;SDS011;2615;44.524;11.284;2023-03-20T11:49:06;32.30;;;23.07;;
5191;SDS011;2615;44.524;11.284;2023-03-20T11:51:47;31.23;;;22.00;;
5191;SDS011;2615;44.524;11.284;2023-03-20T11:54:17;29.53;;;20.70;;
5191;SDS011;2615;44.524;11.284;2023-03-20T11:56:51;29.67;;;21.00;;
5191;SDS011;2615;44.524;11.284;2023-03-20T11:59:21;36.70;;;19.70;;
5191;SDS011;2615;44.524;11.284;2023-03-20T12:01:52;33.43;;;22.10;;
5191;SDS011;2615;44.524;11.284;2023-03-20T12:04:25;24.70;;;18.90;;
5191;SDS011;2615;44.524;11.284;2023-03-20T12:06:55;31.00;;;20.83;;
5191;SDS011;2615;44.524;11.284;2023-03-20T12:09:36;24.60;;;19.43;;
5191;SDS011;2615;44.524;11.284;2023-03-20T12:12:10;28.53;;;20.80;;
5191;SDS011;2615;44.524;11.284;2023-03-20T12:14:44;29.57;;;21.00;;
5191;SDS011;2615;44.524;11.284;2023-03-20T12:20:12;29.83;;;20.60;;
5191;SDS011;2615;44.524;11.284;2023-03-20T12:22:52;27.53;;;19.83;;
5191;SDS011;2615;44.524;11.284;2023-03-20T12:25:30;28.97;;;20.20;;
5191;SDS011;2615;44.524;11.284;2023-03-20T12:28:04;29.30;;;20.87;;
5191;SDS011;2615;44.524;11.284;2023-03-20T12:30:43;28.30;;;20.47;;
5191;SDS011;2615;44.524;11.284;2023-03-20T12:33:21;28.00;;;18.90;;
5191;SDS011;2615;44.524;11.284;2023-03-20T12:35:59;25.90;;;18.20;;
5191;SDS011;2615;44.524;11.284;2023-03-20T12:38:30;28.57;;;20.10;;
5191;SDS011;2615;44.524;11.284;2023-03-20T12:41:03;24.57;;;19.60;;
5191;SDS011;2615;44.524;11.284;2023-03-20T12:43:48;23.70;;;18.47;;
5191;SDS011;2615;44.524;11.284;2023-03-20T12:46:35;26.20;;;17.80;;
5191;SDS011;2615;44.524;11.284;2023-03-20T12:49:11;28.47;;;18.40;;
5191;SDS011;2615;44.524;11.284;2023-03-20T12:51:53;18.73;;;14.50;;
5191;SDS011;2615;44.524;11.284;2023-03-20T12:54:32;23.27;;;16.90;;
5191;SDS011;2615;44.524;11.284;2023-03-20T12:57:12;22.83;;;16.27;;
5191;SDS011;2615;44.524;11.284;2023-03-20T12:59:54;22.57;;;16.20;;
5191;SDS011;2615;44.524;11.284;2023-03-20T13:02:33;22.10;;;15.80;;
5191;SDS011;2615;44.524;11.284;2023-03-20T13:05:15;18.33;;;14.97;;
5191;SDS011;2615;44.524;11.284;2023-03-20T13:07:57;20.60;;;14.87;;
5191;SDS011;2615;44.524;11.284;2023-03-20T13:10:42;17.33;;;14.43;;
5191;SDS011;2615;44.524;11.284;2023-03-20T13:13:17;22.80;;;16.70;;
5191;SDS011;2615;44.524;11.284;2023-03-20T13:15:56;22.50;;;15.20;;
5191;SDS011;2615;44.524;11.284;2023-03-20T13:18:39;22.60;;;16.27;;
5191;SDS011;2615;44.524;11.284;2023-03-20T13:21:18;18.60;;;14.50;;
5191;SDS011;2615;44.524;11.284;2023-03-20T13:23:53;20.13;;;14.80;;
5191;SDS011;2615;44.524;11.284;2023-03-20T13:26:28;26.67;;;17.83;;
5191;SDS011;2615;44.524;11.284;2023-03-20T13:29:01;20.00;;;15.73;;
5191;SDS011;2615;44.524;11.284;2023-03-20T13:31:37;21.33;;;16.97;;
5191;SDS011;2615;44.524;11.284;2023-03-20T13:34:16;29.47;;;16.80;;
5191;SDS011;2615;44.524;11.284;2023-03-20T13:36:58;23.00;;;16.70;;
5191;SDS011;2615;44.524;11.284;2023-03-20T13:39:51;25.80;;;17.87;;
5191;SDS011;2615;44.524;11.284;2023-03-20T13:42:28;24.27;;;16.50;;
5191;SDS011;2615;44.524;11.284;2023-03-20T13:45:03;20.17;;;16.90;;
5191;SDS011;2615;44.524;11.284;2023-03-20T13:47:33;24.53;;;17.60;;
5191;SDS011;2615;44.524;11.284;2023-03-20T13:50:18;22.67;;;18.17;;
5191;SDS011;2615;44.524;11.284;2023-03-20T13:52:58;19.37;;;16.00;;
5191;SDS011;2615;44.524;11.284;2023-03-20T13:55:34;24.03;;;18.37;;
5191;SDS011;2615;44.524;11.284;2023-03-20T13:58:22;23.17;;;18.73;;
5191;SDS011;2615;44.524;11.284;2023-03-20T14:01:05;26.37;;;19.30;;
5191;SDS011;2615;44.524;11.284;2023-03-20T14:03:42;27.70;;;21.50;;
5191;SDS011;2615;44.524;11.284;2023-03-20T14:06:16;28.10;;;21.80;;
5191;SDS011;2615;44.524;11.284;2023-03-20T14:08:52;27.97;;;22.60;;
5191;SDS011;2615;44.524;11.284;2023-03-20T14:11:27;29.47;;;23.10;;
5191;SDS011;2615;44.524;11.284;2023-03-20T14:14:02;28.60;;;21.60;;
5191;SDS011;2615;44.524;11.284;2023-03-20T14:16:36;26.80;;;21.33;;
5191;SDS011;2615;44.524;11.284;2023-03-20T14:19:06;31.13;;;22.03;;
5191;SDS011;2615;44.524;11.284;2023-03-20T14:21:38;30.73;;;24.93;;
5191;SDS011;2615;44.524;11.284;2023-03-20T14:24:11;30.10;;;22.93;;
5191;SDS011;2615;44.524;11.284;2023-03-20T14:26:42;26.93;;;22.93;;
5191;SDS011;2615;44.524;11.284;2023-03-20T14:29:19;30.03;;;23.43;;
5191;SDS011;2615;44.524;11.284;2023-03-20T14:32:03;29.10;;;22.80;;
5191;SDS011;2615;44.524;11.284;2023-03-20T14:34:48;28.23;;;23.20;;
5191;SDS011;2615;44.524;11.284;2023-03-20T14:37:27;37.10;;;26.30;;
5191;SDS011;2615;44.524;11.284;2023-03-20T14:40:05;32.80;;;23.07;;
5191;SDS011;2615;44.524;11.284;2023-03-20T14:42:46;29.70;;;22.67;;
5191;SDS011;2615;44.524;11.284;2023-03-20T14:45:23;28.13;;;22.10;;
5191;SDS011;2615;44.524;11.284;2023-03-20T14:48:07;33.43;;;24.17;;
5191;SDS011;2615;44.524;11.284;2023-03-20T14:50:49;33.03;;;22.73;;
5191;SDS011;2615;44.524;11.284;2023-03-20T14:53:21;34.73;;;22.77;;
5191;SDS011;2615;44.524;11.284;2023-03-20T14:55:57;24.77;;;21.13;;
5191;SDS011;2615;44.524;11.284;2023-03-20T15:01:44;30.07;;;22.07;;
5191;SDS011;2615;44.524;11.284;2023-03-20T15:04:20;28.60;;;23.07;;
5191;SDS011;2615;44.524;11.284;2023-03-20T15:06:55;26.30;;;21.63;;
5191;SDS011;2615;44.524;11.284;2023-03-20T15:09:25;37.50;;;22.70;;
5191;SDS011;2615;44.524;11.284;2023-03-20T15:11:55;30.03;;;23.30;;
5191;SDS011;2615;44.524;11.284;2023-03-20T15:14:34;30.87;;;24.67;;
5191;SDS011;2615;44.524;11.284;2023-03-20T15:17:14;30.43;;;21.03;;
5191;SDS011;2615;44.524;11.284;2023-03-20T15:19:45;33.57;;;24.87;;